createdAt,value
2022-11-12T00:03:39.591Z,15.3
2022-11-12T00:09:10.143Z,15.3
2022-11-12T00:13:42.346Z,12.9
2022-11-12T00:19:01.757Z,18.5
2022-11-12T00:24:29.310Z,17.6
2022-11-12T00:29:35.610Z,14.5
2022-11-12T00:34:18.001Z,3.3
2022-11-12T00:39:14.385Z,5.6
2022-11-12T00:44:34.482Z,6.7
2022-11-12T00:49:40.733Z,2.3
2022-11-12T00:54:51.138Z,0.6
2022-11-12T00:59:53.613Z,12.1
2022-11-12T01:05:05.452Z,12.1
2022-11-12T01:10:07.928Z,0.8
2022-11-12T01:15:14.451Z,13.4
2022-11-12T01:20:34.750Z,13.4
2022-11-12T01:25:27.095Z,3.2
2022-11-12T01:30:53.651Z,13.9
2022-11-12T01:35:39.860Z,13.9
2022-11-12T01:40:46.232Z,13.9
2022-11-12T01:46:16.902Z,13.9
2022-11-12T01:50:49.187Z,0.9
2022-11-12T01:56:42.488Z,0.0
2022-11-12T02:01:47.219Z,0.0
2022-11-12T02:06:53.542Z,2.1
2022-11-12T02:13:11.962Z,16.3
2022-11-12T02:16:56.304Z,14.7
2022-11-12T02:22:12.574Z,14.9
2022-11-12T02:27:19.133Z,14.5
2022-11-12T02:32:25.631Z,13.6
2022-11-12T02:37:21.879Z,14.2
2022-11-12T02:42:38.509Z,15.5
2022-11-12T02:47:34.965Z,15.5
2022-11-12T02:52:50.255Z,18.4
2022-11-12T02:58:01.664Z,15.0
2022-11-12T03:03:08.160Z,16.2
2022-11-12T03:08:10.416Z,19.5
2022-11-12T03:13:16.791Z,14.2
2022-11-12T03:18:23.405Z,19.4
2022-11-12T03:23:33.549Z,12.0
2022-11-12T03:28:39.933Z,14.1
2022-11-12T03:33:42.428Z,13.4
2022-11-12T03:38:48.844Z,12.0
2022-11-12T03:44:29.351Z,15.3
2022-11-12T03:49:40.802Z,17.9
2022-11-12T03:54:43.082Z,16.4
2022-11-12T03:59:53.448Z,41.4
2022-11-12T04:05:19.987Z,17.0
2022-11-12T04:10:06.235Z,15.0
2022-11-12T04:15:10.166Z,14.3
2022-11-12T04:20:16.569Z,12.9
2022-11-12T04:25:24.611Z,12.4
2022-11-12T04:30:30.868Z,13.6
2022-11-12T04:35:27.239Z,12.4
2022-11-12T04:40:43.750Z,16.0
2022-11-12T04:46:04.136Z,17.7
2022-11-12T04:50:46.454Z,12.2
2022-11-12T04:55:52.995Z,13.7
2022-11-12T05:00:59.398Z,14.0
2022-11-12T05:06:05.740Z,15.4
2022-11-12T05:11:22.272Z,14.3
2022-11-12T05:16:18.510Z,17.2
2022-11-12T05:22:44.325Z,13.6
2022-11-12T05:27:15.497Z,16.5
2022-11-12T05:32:22.745Z,11.7
2022-11-12T05:37:29.117Z,14.5
2022-11-12T05:42:25.724Z,17.0
2022-11-12T05:47:42.133Z,13.6
2022-11-12T05:52:38.517Z,13.4
2022-11-12T05:57:45.022Z,12.7
2022-11-12T06:03:28.360Z,12.1
2022-11-12T06:08:07.692Z,15.4
2022-11-12T06:13:04.183Z,13.6
2022-11-12T06:18:09.721Z,15.5
2022-11-12T06:23:31.133Z,12.1
2022-11-12T06:28:33.767Z,13.5
2022-11-12T06:33:44.007Z,13.3
2022-11-12T06:39:10.426Z,12.3
2022-11-12T06:43:52.863Z,14.6
2022-11-12T06:48:49.123Z,12.5
2022-11-12T06:53:55.502Z,25.7
2022-11-12T06:59:12.014Z,22.6
2022-11-12T07:04:18.278Z,16.8
2022-11-12T07:09:24.789Z,13.0
2022-11-12T07:14:35.873Z,15.7
2022-11-12T07:20:03.264Z,15.7
2022-11-12T07:25:08.686Z,20.6
2022-11-12T07:29:51.180Z,15.2
2022-11-12T07:34:57.454Z,16.2
2022-11-12T07:40:03.831Z,15.2
2022-11-12T07:50:24.403Z,16.8
2022-11-12T07:55:54.759Z,24.8
2022-11-12T08:05:39.647Z,33.8
2022-11-12T08:10:45.927Z,23.4
2022-11-12T08:16:26.482Z,26.4
2022-11-12T08:21:33.995Z,17.4
2022-11-12T08:27:56.425Z,24.3
2022-11-12T08:31:36.736Z,17.1
2022-11-12T08:36:52.268Z,28.5
2022-11-12T08:41:59.537Z,22.8
2022-11-12T08:47:06.032Z,21.8
2022-11-12T08:52:12.632Z,26.1
2022-11-12T08:57:08.884Z,21.2
2022-11-12T09:02:25.319Z,24.5
2022-11-12T09:07:48.007Z,22.1
2022-11-12T09:12:42.118Z,22.8
2022-11-12T09:18:08.591Z,30.6
2022-11-12T09:22:51.336Z,45.5
2022-11-12T09:27:57.725Z,19.3
2022-11-12T09:33:04.105Z,22.7
2022-11-12T09:38:30.712Z,22.4
2022-11-12T09:43:35.909Z,22.4
2022-11-12T09:48:27.806Z,30.3
2022-11-12T09:53:29.669Z,31.6
2022-11-12T09:58:36.185Z,31.6
2022-11-12T10:03:42.513Z,26.7
2022-11-12T10:08:49.001Z,36.4
2022-11-12T10:13:57.261Z,35.5
2022-11-12T10:19:07.517Z,42.8
2022-11-12T10:24:09.898Z,44.7
2022-11-12T10:29:20.392Z,67.6
2022-11-12T10:34:24.243Z,155.4
2022-11-12T10:39:34.641Z,121.2
2022-11-12T10:44:37.167Z,56.4
2022-11-12T10:49:43.444Z,51.3
2022-11-12T10:54:54.950Z,44.1
2022-11-12T11:00:00.344Z,35.5
2022-11-12T11:04:52.599Z,24.9
2022-11-12T11:10:13.011Z,20.2
2022-11-12T11:15:05.598Z,16.8
2022-11-12T11:20:22.011Z,25.2
2022-11-12T11:25:32.376Z,20.1
2022-11-12T11:30:24.846Z,21.0
2022-11-12T11:40:53.103Z,20.8
2022-11-12T11:45:55.601Z,18.6
2022-11-12T11:51:05.868Z,17.6
2022-11-12T11:56:33.866Z,19.4
2022-11-12T12:01:16.308Z,22.2
2022-11-12T12:07:36.278Z,18.1
2022-11-12T12:11:37.565Z,21.7
2022-11-12T12:16:41.205Z,17.5
2022-11-12T12:23:08.755Z,18.8
2022-11-12T12:28:20.182Z,22.0
2022-11-12T12:33:02.163Z,19.4
2022-11-12T12:38:12.436Z,18.3
2022-11-12T12:43:17.810Z,18.3
2022-11-12T12:48:24.691Z,18.7
2022-11-12T12:53:20.592Z,23.5
2022-11-12T12:58:37.094Z,19.1
2022-11-12T13:03:33.579Z,16.5
2022-11-12T13:13:46.328Z,19.7
2022-11-12T13:14:14.385Z,19.9
2022-11-12T13:19:06.954Z,16.9
2022-11-12T13:24:10.869Z,21.0
2022-11-12T13:29:17.267Z,23.1
2022-11-12T13:34:13.746Z,26.8
2022-11-12T13:39:29.111Z,24.2
2022-11-12T13:46:36.471Z,22.7
2022-11-12T13:51:43.891Z,17.5
2022-11-12T13:55:26.608Z,20.4
2022-11-12T14:02:53.322Z,19.7
2022-11-12T14:05:43.008Z,18.5
2022-11-12T14:16:41.590Z,17.7
2022-11-12T14:21:37.861Z,15.4
2022-11-12T14:27:09.400Z,18.5
2022-11-12T14:31:51.980Z,15.7
2022-11-12T14:36:48.221Z,19.4
2022-11-12T14:42:08.639Z,17.1
2022-11-12T14:47:01.107Z,29.8
2022-11-12T14:52:20.396Z,15.0
2022-11-12T14:57:13.742Z,18.1
2022-11-12T15:02:43.911Z,25.6
2022-11-12T15:07:26.617Z,18.1
2022-11-12T15:12:42.021Z,21.3
2022-11-12T15:17:49.521Z,16.5
2022-11-12T15:22:55.792Z,22.0
2022-11-12T15:28:06.167Z,18.1
2022-11-12T15:33:43.637Z,32.5
2022-11-12T15:38:40.867Z,24.4
2022-11-12T15:54:10.764Z,20.8
2022-11-12T15:59:17.999Z,20.6
2022-11-12T16:04:48.425Z,34.1
2022-11-12T16:09:50.919Z,28.6
2022-11-12T16:14:37.153Z,20.8
2022-11-12T16:19:33.517Z,28.1
2022-11-12T16:26:05.789Z,18.2
2022-11-12T16:29:59.933Z,27.0
2022-11-12T16:35:06.307Z,21.7
2022-11-12T16:40:12.692Z,20.1
2022-11-12T16:45:19.188Z,16.1
2022-11-12T16:50:49.513Z,25.2
2022-11-12T16:55:31.866Z,43.2
2022-11-12T17:00:42.417Z,27.0
2022-11-12T17:05:44.589Z,22.6
2022-11-12T17:10:51.036Z,22.8
2022-11-12T17:15:57.666Z,32.2
2022-11-12T17:21:03.998Z,41.8
2022-11-12T17:26:10.376Z,34.8
2022-11-12T17:31:06.871Z,23.2
2022-11-12T17:36:27.171Z,28.0
2022-11-12T17:41:29.642Z,21.3
2022-11-12T17:46:40.157Z,20.9
2022-11-12T17:53:05.573Z,28.5
2022-11-12T17:58:12.962Z,22.6
2022-11-12T18:03:39.574Z,27.0
2022-11-12T18:08:48.850Z,35.6
2022-11-12T18:13:32.172Z,20.4
2022-11-12T18:18:38.585Z,21.4
2022-11-12T18:23:45.193Z,25.4
2022-11-12T18:28:51.466Z,23.7
2022-11-12T18:34:03.438Z,25.3
2022-11-12T18:38:55.920Z,36.7
2022-11-12T18:44:02.205Z,40.8
2022-11-12T18:49:18.609Z,31.6
2022-11-12T18:54:25.116Z,21.9
2022-11-12T19:00:22.754Z,26.6
2022-11-12T19:04:45.151Z,21.9
2022-11-12T19:09:51.895Z,24.8
2022-11-12T19:14:54.168Z,28.4
2022-11-12T19:20:00.543Z,26.6
2022-11-12T19:25:07.117Z,24.9
2022-11-12T19:30:13.532Z,31.3
2022-11-12T19:35:23.463Z,26.4
2022-11-12T19:40:33.969Z,31.2
2022-11-12T19:45:35.335Z,31.0
2022-11-12T19:50:42.747Z,23.8
2022-11-12T19:55:49.264Z,30.2
2022-11-12T20:06:01.922Z,30.4
2022-11-12T20:11:08.450Z,23.6
2022-11-12T20:16:14.738Z,25.1
2022-11-12T20:21:11.223Z,25.2
2022-11-12T20:26:17.742Z,22.8
2022-11-12T20:32:08.415Z,23.8
2022-11-12T20:37:19.818Z,26.3
2022-11-12T20:42:29.904Z,23.3
2022-11-12T20:47:32.144Z,21.1
2022-11-12T20:52:38.538Z,23.8
2022-11-12T20:57:45.143Z,22.4
2022-11-12T21:02:58.981Z,19.7
2022-11-12T21:08:25.698Z,35.0
2022-11-12T21:13:07.999Z,20.5
2022-11-12T21:18:14.268Z,21.3
2022-11-12T21:23:20.687Z,24.5
2022-11-12T21:28:31.271Z,22.5
2022-11-12T21:33:33.105Z,24.3
2022-11-12T21:38:40.635Z,22.6
2022-11-12T21:43:47.216Z,20.5
2022-11-12T21:48:55.103Z,20.9
2022-11-12T21:53:59.982Z,22.9
2022-11-12T21:59:30.568Z,19.6
2022-11-12T22:04:17.106Z,18.8
2022-11-12T22:09:19.169Z,20.3
2022-11-12T22:14:49.714Z,25.4
2022-11-12T22:19:35.939Z,18.6
2022-11-12T22:24:45.954Z,28.9
2022-11-12T22:29:48.356Z,22.8
2022-11-12T22:35:14.909Z,19.0
2022-11-12T22:40:01.114Z,16.7
2022-11-12T22:45:09.073Z,32.6
2022-11-12T22:50:15.528Z,22.0
2022-11-12T22:55:22.144Z,17.0
2022-11-12T23:00:28.493Z,20.5
2022-11-12T23:08:18.407Z,26.7
2022-11-12T23:14:27.060Z,28.0
2022-11-12T23:19:14.279Z,26.5
2022-11-12T23:24:20.683Z,24.3
2022-11-12T23:29:27.066Z,25.5
2022-11-12T23:34:33.576Z,21.7
2022-11-12T23:39:39.856Z,21.4
2022-11-12T23:45:27.393Z,28.2
2022-11-12T23:50:54.950Z,23.5
2022-11-12T23:55:41.183Z,20.0
